Time;durP1;ratioP1;P1;durP2;ratioP2;P2;SDS_P1;SDS_P2;PMS_P1;PMS_P2;Temp;Humidity;BMP_temperature;BMP_pressure;BME280_temperature;BME280_humidity;BME280_pressure;Samples;Min_cycle;Max_cycle;Signal;HPM_P1;HPM_P2
2021/09/26 00:01:07;;;;;;;;;19.00;19.00;;;;;17.56;78.45;100909.47;5083570;28;45199;-83
2021/09/26 00:03:33;;;;;;;;;19.67;19.67;;;;;17.53;78.28;100905.34;5083967;28;45352;-84
2021/09/26 00:05:58;;;;;;;;;17.67;17.67;;;;;17.46;78.09;100904.59;5081655;28;45338;-83
2021/09/26 00:08:24;;;;;;;;;19.00;19.00;;;;;17.37;78.41;100906.69;5082411;28;45307;-84
2021/09/26 00:10:49;;;;;;;;;19.00;19.00;;;;;17.23;78.01;100893.34;5084748;28;45490;-83
2021/09/26 00:13:15;;;;;;;;;24.00;23.00;;;;;17.32;78.34;100901.97;5084452;27;46116;-83
2021/09/26 00:15:41;;;;;;;;;17.33;17.33;;;;;17.25;78.42;100898.50;5082328;28;45353;-83
2021/09/26 00:18:06;;;;;;;;;19.67;18.67;;;;;17.23;78.10;100905.94;5082709;28;45317;-83
2021/09/26 00:20:32;;;;;;;;;18.67;17.67;;;;;17.15;78.43;100897.09;5082573;28;45286;-84
2021/09/26 00:22:57;;;;;;;;;21.67;19.33;;;;;17.12;78.02;100896.72;5082657;27;45321;-83
2021/09/26 00:25:23;;;;;;;;;21.33;18.67;;;;;17.04;78.13;100908.50;5082305;28;45356;-83
2021/09/26 00:27:49;;;;;;;;;15.33;14.33;;;;;17.00;78.22;100916.13;5084468;27;45201;-83
2021/09/26 00:30:15;;;;;;;;;18.00;16.67;;;;;16.93;78.37;100909.97;5078272;28;45540;-83
2021/09/26 00:32:45;;;;;;;;;18.67;18.00;;;;;16.95;78.08;100924.03;5065698;28;45173;-83
2021/09/26 00:35:11;;;;;;;;;17.67;17.00;;;;;16.91;78.54;100915.56;5065610;28;45339;-83
2021/09/26 00:37:38;;;;;;;;;15.00;15.00;;;;;16.91;78.39;100926.31;5063434;28;45358;-83
2021/09/26 00:40:05;;;;;;;;;19.33;18.67;;;;;16.82;78.50;100922.19;5065473;28;45361;-83
2021/09/26 00:42:31;;;;;;;;;17.00;17.00;;;;;16.83;78.67;100928.41;5067562;28;46415;-83
2021/09/26 00:44:58;;;;;;;;;17.00;17.00;;;;;16.82;78.69;100932.94;5066252;28;45184;-83
2021/09/26 00:47:24;;;;;;;;;19.67;18.67;;;;;16.78;78.49;100931.72;5066741;28;45338;-84
2021/09/26 00:49:50;;;;;;;;;21.00;21.00;;;;;16.82;78.28;100932.94;5067000;28;45220;-83
2021/09/26 00:52:18;;;;;;;;;20.00;18.33;;;;;16.74;78.70;100934.00;5064580;28;45402;-83
2021/09/26 00:54:45;;;;;;;;;17.67;16.33;;;;;16.76;78.46;100942.66;5067048;28;45374;-83
2021/09/26 00:57:10;;;;;;;;;15.67;15.67;;;;;16.65;78.86;100938.75;5069333;28;45263;-84
2021/09/26 00:59:36;;;;;;;;;18.33;18.00;;;;;16.73;78.33;100950.31;5068944;28;45458;-83
2021/09/26 01:02:02;;;;;;;;;20.00;19.00;;;;;16.64;78.43;100944.34;5069008;28;46108;-83
2021/09/26 01:04:28;;;;;;;;;22.00;20.00;;;;;16.66;78.73;100951.16;5066820;28;45259;-83
2021/09/26 01:07:22;;;;;;;;;19.00;17.67;;;;;16.68;78.79;100967.03;5065544;28;45238;-83
2021/09/26 01:10:07;;;;;;;;;17.67;17.33;;;;;16.66;78.27;100961.88;5065605;28;45192;-84
2021/09/26 01:12:32;;;;;;;;;19.33;18.67;;;;;16.59;78.53;100961.09;5066420;28;46355;-83
2021/09/26 01:15:00;;;;;;;;;16.33;15.67;;;;;16.61;78.92;100955.50;5068266;28;44794;-84
2021/09/26 01:17:33;;;;;;;;;18.33;17.00;;;;;16.54;78.71;100939.41;5068789;28;45358;-83
2021/09/26 01:20:36;;;;;;;;;17.00;16.33;;;;;16.56;78.49;100942.72;5071369;28;45161;-84
2021/09/26 01:23:04;;;;;;;;;18.67;18.67;;;;;16.52;78.72;100955.72;5073546;28;45244;-84
2021/09/26 01:25:35;;;;;;;;;18.33;18.33;;;;;16.51;78.83;100958.59;5071909;28;45219;-84
2021/09/26 01:28:31;;;;;;;;;23.00;20.00;;;;;16.48;79.16;100954.47;5071564;28;45384;-83
2021/09/26 01:31:12;;;;;;;;;17.33;17.33;;;;;16.49;78.69;100956.13;5085030;28;45251;-83
2021/09/26 01:33:49;;;;;;;;;20.67;18.00;;;;;16.48;79.22;100949.13;5091589;28;45514;-83
2021/09/26 01:36:40;;;;;;;;;19.33;19.33;;;;;16.51;78.66;100956.75;5095032;28;45302;-83
2021/09/26 01:39:08;;;;;;;;;17.67;17.67;;;;;16.53;78.78;100952.00;5097708;28;45416;-84
2021/09/26 01:41:43;;;;;;;;;25.67;24.67;;;;;16.52;79.04;100953.03;5094842;28;45520;-83
2021/09/26 01:44:18;;;;;;;;;16.67;16.33;;;;;16.49;78.79;100945.41;5096136;28;45413;-83
2021/09/26 01:46:50;;;;;;;;;16.67;16.67;;;;;16.51;78.79;100943.34;5095496;28;45720;-84
2021/09/26 01:49:28;;;;;;;;;19.00;19.00;;;;;16.49;78.39;100948.09;5097404;27;45707;-83
2021/09/26 01:51:57;;;;;;;;;19.00;19.00;;;;;16.48;78.62;100951.81;5101247;27;44641;-84
2021/09/26 01:54:23;;;;;;;;;20.67;19.00;;;;;16.41;78.84;100946.44;5100235;28;46883;-83
2021/09/26 01:56:51;;;;;;;;;15.33;15.00;;;;;16.40;78.85;100950.16;5102468;28;45201;-84
2021/09/26 01:59:21;;;;;;;;;19.00;17.00;;;;;16.41;78.69;100946.44;5095543;28;45308;-83
2021/09/26 02:01:47;;;;;;;;;18.00;18.00;;;;;16.45;79.17;100954.91;5094074;28;46674;-83
2021/09/26 02:04:17;;;;;;;;;19.00;19.00;;;;;16.43;79.21;100948.09;5094961;28;45252;-83
2021/09/26 02:06:44;;;;;;;;;17.33;16.33;;;;;16.45;79.45;100962.94;5100306;28;45536;-84
2021/09/26 02:09:12;;;;;;;;;20.00;19.33;;;;;16.43;79.51;100961.50;5104566;28;45295;-83
2021/09/26 02:11:40;;;;;;;;;19.00;18.33;;;;;16.37;79.12;100952.44;5095786;28;45235;-83
2021/09/26 02:14:08;;;;;;;;;17.00;16.67;;;;;16.36;79.55;100945.41;5101493;27;45989;-83
2021/09/26 02:16:37;;;;;;;;;22.33;20.00;;;;;16.44;79.89;100955.94;5103486;28;45391;-84
2021/09/26 02:19:04;;;;;;;;;20.67;18.00;;;;;16.42;79.86;100947.28;5103263;27;44617;-83
2021/09/26 02:21:31;;;;;;;;;20.00;19.33;;;;;16.49;79.29;100955.31;5099802;28;45204;-84
2021/09/26 02:24:00;;;;;;;;;18.00;18.00;;;;;16.51;79.25;100953.25;5101517;28;45541;-83
2021/09/26 02:26:27;;;;;;;;;18.00;18.00;;;;;16.49;79.24;100948.09;5101237;28;44672;-84
2021/09/26 02:28:53;;;;;;;;;21.67;20.00;;;;;16.51;79.68;100943.34;5101437;28;45241;-83
2021/09/26 02:31:18;;;;;;;;;23.00;21.00;;;;;16.48;79.34;100937.56;5082401;27;45174;-84
2021/09/26 02:33:46;;;;;;;;;19.00;16.33;;;;;16.50;79.55;100939.03;5077023;28;46282;-84
2021/09/26 02:36:13;;;;;;;;;18.00;18.00;;;;;16.52;79.23;100936.09;5073420;28;45276;-83
2021/09/26 02:38:40;;;;;;;;;19.33;18.67;;;;;16.52;79.27;100939.63;5077060;28;44680;-84
2021/09/26 02:41:30;;;;;;;;;20.00;19.67;;;;;16.53;78.96;100946.63;5076154;28;46057;-83
2021/09/26 02:44:22;;;;;;;;;24.33;22.67;;;;;16.50;79.24;100944.38;5076239;28;46018;-84
2021/09/26 02:47:01;;;;;;;;;19.00;19.00;;;;;16.48;79.13;100935.72;5079920;28;44611;-83
2021/09/26 02:49:28;;;;;;;;;20.33;20.33;;;;;16.48;79.21;100941.06;5078701;28;45359;-83
2021/09/26 02:51:55;;;;;;;;;21.33;21.00;;;;;16.44;79.19;100923.75;5067987;28;45287;-83
2021/09/26 02:54:22;;;;;;;;;19.00;18.67;;;;;16.43;79.06;100913.22;5068333;28;45520;-83
2021/09/26 02:56:49;;;;;;;;;18.00;17.67;;;;;16.49;79.10;100918.56;5074711;28;45263;-83
2021/09/26 02:59:15;;;;;;;;;20.67;20.67;;;;;16.47;79.29;100922.50;5081208;28;44643;-83
2021/09/26 03:01:52;;;;;;;;;15.67;14.67;;;;;16.48;79.14;100918.78;5083461;28;46245;-83
2021/09/26 03:04:18;;;;;;;;;19.67;19.67;;;;;16.48;79.23;100906.19;5083651;28;45303;-83
2021/09/26 03:06:43;;;;;;;;;18.33;18.00;;;;;16.50;79.56;100904.16;5080349;28;44769;-83
2021/09/26 03:09:09;;;;;;;;;20.00;20.00;;;;;16.56;79.40;100921.25;5079298;28;45432;-83
2021/09/26 03:11:34;;;;;;;;;25.33;23.00;;;;;16.55;79.19;100921.47;5080760;28;45562;-83
2021/09/26 03:14:00;;;;;;;;;21.00;20.33;;;;;16.53;79.60;100917.09;5076672;28;45320;-83
2021/09/26 03:16:26;;;;;;;;;18.33;17.33;;;;;16.56;79.40;100901.63;5078479;28;45186;-84
2021/09/26 03:18:51;;;;;;;;;21.00;21.00;;;;;16.58;79.28;100903.06;5077884;28;45338;-83
2021/09/26 03:21:17;;;;;;;;;22.00;21.67;;;;;16.61;79.26;100905.34;5081910;28;46602;-83
2021/09/26 03:23:42;;;;;;;;;15.67;15.33;;;;;16.62;79.13;100898.97;5077797;28;46598;-83
2021/09/26 03:26:08;;;;;;;;;22.33;22.33;;;;;16.66;79.01;100896.66;5079639;28;45268;-83
2021/09/26 03:28:34;;;;;;;;;21.33;21.33;;;;;16.66;79.38;100896.66;5075866;28;45279;-84
2021/09/26 03:31:00;;;;;;;;;20.33;20.00;;;;;16.64;79.66;100890.69;5091164;28;45982;-83
2021/09/26 03:33:25;;;;;;;;;21.00;19.50;;;;;16.69;79.71;100896.22;5096654;28;46547;-84
2021/09/26 03:35:51;;;;;;;;;23.00;20.00;;;;;16.69;79.00;100901.59;5099068;28;44813;-84
2021/09/26 03:38:17;;;;;;;;;24.67;24.67;;;;;16.69;79.69;100895.41;5097633;28;45284;-84
2021/09/26 03:40:43;;;;;;;;;24.67;23.67;;;;;16.70;79.50;100892.50;5096330;28;45476;-83
2021/09/26 03:43:08;;;;;;;;;19.67;18.67;;;;;16.73;79.08;100904.69;5097243;28;46106;-84
2021/09/26 03:45:34;;;;;;;;;20.33;20.33;;;;;16.70;79.03;100897.88;5097037;28;45322;-83
2021/09/26 03:48:00;;;;;;;;;26.00;25.33;;;;;16.73;78.85;100905.50;5099789;28;44732;-83
2021/09/26 03:50:26;;;;;;;;;21.33;21.33;;;;;16.71;79.07;100890.66;5099812;27;44601;-84
2021/09/26 03:52:52;;;;;;;;;23.33;22.33;;;;;16.69;79.30;100890.88;5094667;28;45565;-83
2021/09/26 03:55:18;;;;;;;;;26.67;25.33;;;;;16.74;79.54;100904.50;5097293;28;45262;-84
2021/09/26 03:57:45;;;;;;;;;25.67;24.33;;;;;16.76;79.21;100907.78;5091113;28;45254;-84
2021/09/26 04:00:14;;;;;;;;;23.33;22.33;;;;;16.75;79.36;100900.75;5096967;28;45964;-83
2021/09/26 04:02:40;;;;;;;;;28.33;23.67;;;;;16.76;79.82;100907.78;5098015;28;46485;-84
2021/09/26 04:05:07;;;;;;;;;25.00;22.67;;;;;16.71;79.41;100898.72;5097645;27;45567;-84
2021/09/26 04:07:33;;;;;;;;;21.67;21.33;;;;;16.78;79.81;100912.94;5094207;28;45176;-84
2021/09/26 04:09:59;;;;;;;;;20.33;20.00;;;;;16.80;79.30;100910.88;5091434;28;45276;-84
2021/09/26 04:12:24;;;;;;;;;24.67;20.67;;;;;16.78;79.78;100899.50;5086348;28;46339;-84
2021/09/26 04:14:50;;;;;;;;;20.33;20.33;;;;;16.80;80.07;100889.41;5092777;28;44642;-84
2021/09/26 04:17:16;;;;;;;;;15.00;15.00;;;;;16.81;79.39;100887.50;5093740;28;45255;-84
2021/09/26 04:19:42;;;;;;;;;25.67;25.67;;;;;16.78;79.34;100881.56;5095230;28;45188;-83
2021/09/26 04:22:07;;;;;;;;;21.67;21.67;;;;;16.85;79.73;100886.88;5093261;28;47110;-84
2021/09/26 04:24:33;;;;;;;;;19.67;19.67;;;;;16.83;79.30;100880.09;5094747;28;45423;-84
2021/09/26 04:26:59;;;;;;;;;22.67;21.67;;;;;16.86;79.32;100880.50;5094135;28;45420;-84
2021/09/26 04:29:24;;;;;;;;;21.33;21.00;;;;;16.85;79.22;100881.50;5094216;28;45428;-84
2021/09/26 04:31:50;;;;;;;;;22.67;22.33;;;;;16.85;79.61;100878.03;5074703;28;46091;-84
2021/09/26 04:34:16;;;;;;;;;22.33;21.00;;;;;16.85;79.52;100883.41;5074270;28;44688;-84
2021/09/26 04:36:42;;;;;;;;;23.67;23.00;;;;;16.84;79.71;100876.34;5077087;28;44742;-83
2021/09/26 04:39:07;;;;;;;;;21.33;20.33;;;;;16.83;79.34;100874.72;5075521;28;45858;-84
2021/09/26 04:41:33;;;;;;;;;22.67;22.00;;;;;16.82;79.31;100878.44;5074440;28;45251;-83
2021/09/26 04:43:59;;;;;;;;;19.33;19.33;;;;;16.77;79.44;100879.09;5072165;28;45242;-84
2021/09/26 04:46:25;;;;;;;;;24.33;22.67;;;;;16.79;79.24;100874.31;5078341;28;44602;-84
2021/09/26 04:48:50;;;;;;;;;22.67;20.00;;;;;16.78;79.59;100878.88;5075113;28;46200;-83
2021/09/26 04:51:16;;;;;;;;;21.67;21.33;;;;;16.75;79.21;100867.72;5079409;28;46155;-83
2021/09/26 04:53:41;;;;;;;;;21.00;21.00;;;;;16.71;78.93;100867.34;5077120;28;44952;-83
2021/09/26 04:56:07;;;;;;;;;23.67;23.67;;;;;16.68;79.32;100864.25;5077891;28;44752;-84
2021/09/26 04:58:33;;;;;;;;;20.67;20.67;;;;;16.65;79.54;100866.31;5077203;28;45328;-83
2021/09/26 05:00:58;;;;;;;;;22.00;22.00;;;;;16.69;79.29;100882.81;5077877;28;45471;-83
2021/09/26 05:03:24;;;;;;;;;24.67;24.33;;;;;16.71;79.59;100890.66;5071495;28;45387;-84
2021/09/26 05:05:49;;;;;;;;;23.33;22.67;;;;;16.68;79.45;100883.88;5069262;28;45349;-84
2021/09/26 05:08:15;;;;;;;;;23.33;23.33;;;;;16.68;79.29;100878.50;5070307;28;45517;-83
2021/09/26 05:10:41;;;;;;;;;21.67;19.33;;;;;16.71;79.36;100874.56;5072275;28;45286;-84
2021/09/26 05:13:06;;;;;;;;;20.33;19.33;;;;;16.69;79.58;100879.31;5072811;28;45237;-84
2021/09/26 05:15:32;;;;;;;;;21.67;21.67;;;;;16.64;79.53;100867.34;5071452;28;45240;-83
2021/09/26 05:17:58;;;;;;;;;24.00;24.00;;;;;16.70;79.64;100887.13;5070339;28;47006;-83
2021/09/26 05:20:23;;;;;;;;;23.00;21.33;;;;;16.69;79.55;100890.03;5071059;28;46682;-84
2021/09/26 05:22:49;;;;;;;;;19.33;18.33;;;;;16.68;79.89;100886.53;5069545;28;45300;-84
2021/09/26 05:25:19;;;;;;;;;24.33;24.00;;;;;16.60;80.10;100881.41;5072435;28;45193;-84
2021/09/26 05:27:45;;;;;;;;;21.33;21.33;;;;;16.67;79.90;100903.66;5075700;28;45908;-83
2021/09/26 05:30:11;;;;;;;;;20.67;20.67;;;;;16.68;80.50;100908.00;5077895;28;45256;-83
2021/09/26 05:32:38;;;;;;;;;21.67;21.00;;;;;16.60;80.56;100898.34;5080189;28;45228;-83
2021/09/26 05:35:04;;;;;;;;;21.33;20.33;;;;;16.70;80.56;100923.91;5068827;28;45277;-81
2021/09/26 05:37:30;;;;;;;;;22.33;21.33;;;;;16.66;80.65;100921.63;5067393;28;45304;-80
2021/09/26 05:39:56;;;;;;;;;19.33;19.33;;;;;16.69;81.05;100917.69;5077152;28;45334;-80
2021/09/26 05:42:22;;;;;;;;;20.33;19.33;;;;;16.71;81.15;100910.28;5074702;28;45351;-81
2021/09/26 05:44:47;;;;;;;;;23.33;20.67;;;;;16.70;81.10;100911.28;5081839;28;45351;-80
2021/09/26 05:47:14;;;;;;;;;18.50;18.00;;;;;16.76;80.82;100915.81;5071412;28;45252;-79
2021/09/26 05:49:41;;;;;;;;;16.00;15.33;;;;;16.79;81.38;100920.75;5078365;28;45416;-80
2021/09/26 05:52:09;;;;;;;;;23.00;21.67;;;;;16.81;81.02;100923.25;5071929;28;45217;-82
2021/09/26 05:54:36;;;;;;;;;21.33;20.67;;;;;16.86;80.83;100922.59;5071250;28;45241;-81
2021/09/26 05:57:02;;;;;;;;;23.00;21.00;;;;;16.91;80.99;100930.84;5073161;28;45261;-81
2021/09/26 05:59:28;;;;;;;;;21.00;20.00;;;;;16.91;81.16;100930.84;5068915;28;46355;-81
2021/09/26 06:01:53;;;;;;;;;24.67;23.00;;;;;16.91;81.23;100934.34;5071912;28;45241;-81
2021/09/26 06:04:19;;;;;;;;;21.67;21.33;;;;;16.92;81.50;100937.88;5071889;28;44717;-80
2021/09/26 06:06:45;;;;;;;;;23.00;19.67;;;;;16.91;81.35;100942.41;5071606;28;45600;-80
2021/09/26 06:09:10;;;;;;;;;21.00;21.00;;;;;17.00;81.38;100951.03;5069518;28;45323;-81
2021/09/26 06:11:36;;;;;;;;;22.33;22.33;;;;;17.01;81.82;100944.66;5072348;28;45209;-81
2021/09/26 06:14:02;;;;;;;;;20.33;20.33;;;;;17.07;81.67;100950.22;5069979;28;45286;-80
2021/09/26 06:16:27;;;;;;;;;26.00;24.00;;;;;17.07;81.67;100956.44;5064750;28;46902;-81
2021/09/26 06:18:53;;;;;;;;;23.33;22.00;;;;;17.08;81.97;100960.75;5067150;28;45386;-80
2021/09/26 06:21:18;;;;;;;;;26.00;24.00;;;;;17.07;81.92;100956.44;5062793;28;45337;-79
2021/09/26 06:23:44;;;;;;;;;25.33;24.33;;;;;17.13;81.77;100965.50;5065446;28;45349;-79
2021/09/26 06:26:09;;;;;;;;;29.33;27.33;;;;;17.20;81.91;100976.19;5064460;28;45549;-79
2021/09/26 06:28:35;;;;;;;;;28.33;27.00;;;;;17.16;82.10;100976.63;5063547;28;46139;-77
2021/09/26 06:31:01;;;;;;;;;24.67;20.00;;;;;17.19;82.33;100977.25;5076945;28;45459;-77
2021/09/26 06:33:26;;;;;;;;;24.67;24.67;;;;;17.22;81.96;100979.50;5073524;28;45292;-78
2021/09/26 06:35:52;;;;;;;;;24.33;24.33;;;;;17.26;81.59;100988.78;5061949;28;45223;-77
2021/09/26 06:38:18;;;;;;;;;27.67;26.00;;;;;17.28;81.63;100989.41;5060996;28;45366;-76
2021/09/26 06:40:43;;;;;;;;;33.33;29.67;;;;;17.32;81.50;100985.25;5060929;28;45323;-77
2021/09/26 06:43:11;;;;;;;;;28.00;25.33;;;;;17.32;81.99;100979.88;5059223;28;45272;-76
2021/09/26 06:45:36;;;;;;;;;22.33;22.33;;;;;17.36;81.64;100983.78;5060399;28;45268;-77
2021/09/26 06:48:02;;;;;;;;;24.67;24.67;;;;;17.37;81.62;100998.88;5059265;28;45357;-77
2021/09/26 06:50:27;;;;;;;;;23.00;22.00;;;;;17.36;81.75;100994.53;5059900;28;45281;-78
2021/09/26 06:52:53;;;;;;;;;24.67;23.67;;;;;17.40;81.28;100997.63;5060445;28;45355;-78
2021/09/26 06:55:19;;;;;;;;;28.00;27.50;;;;;17.41;81.92;101000.09;5060699;28;45319;-78
2021/09/26 06:57:44;;;;;;;;;26.67;24.67;;;;;17.43;81.42;101002.56;5060500;28;46042;-78
2021/09/26 07:00:10;;;;;;;;;27.00;27.00;;;;;17.46;81.83;101001.31;5060742;28;45243;-78
2021/09/26 07:02:36;;;;;;;;;28.33;26.00;;;;;17.51;81.27;101010.38;5060887;28;45321;-77
2021/09/26 07:05:02;;;;;;;;;22.33;21.67;;;;;17.55;81.06;101013.47;5061719;28;45476;-77
2021/09/26 07:07:27;;;;;;;;;26.33;26.33;;;;;17.53;81.27;101008.31;5061262;28;45328;-77
2021/09/26 07:09:53;;;;;;;;;25.67;24.67;;;;;17.59;81.02;101022.72;5061065;28;45382;-78
2021/09/26 07:12:19;;;;;;;;;26.67;25.00;;;;;17.59;81.10;101011.97;5061662;28;45294;-78
2021/09/26 07:14:46;;;;;;;;;28.67;27.00;;;;;17.66;81.15;101018.16;5060629;28;45387;-78
2021/09/26 07:17:12;;;;;;;;;27.67;26.00;;;;;17.73;81.48;101011.91;5063406;28;45239;-78
2021/09/26 07:19:37;;;;;;;;;28.00;26.00;;;;;17.76;81.09;101023.06;5065110;28;45331;-78
2021/09/26 07:22:04;;;;;;;;;26.67;26.67;;;;;17.78;80.67;101018.28;5061691;28;45279;-78
2021/09/26 07:24:30;;;;;;;;;25.33;24.67;;;;;17.81;80.44;101021.59;5061418;28;45207;-77
2021/09/26 07:26:56;;;;;;;;;25.67;24.67;;;;;17.82;80.96;101016.00;5060257;28;46319;-78
2021/09/26 07:29:21;;;;;;;;;31.00;28.67;;;;;17.83;80.65;101023.03;5061386;28;45325;-78
2021/09/26 07:31:47;;;;;;;;;26.33;26.33;;;;;17.85;80.19;101036.25;5072776;28;45365;-80
2021/09/26 07:34:13;;;;;;;;;22.33;21.33;;;;;17.86;80.52;101040.56;5057248;28;48079;-81
2021/09/26 07:36:38;;;;;;;;;26.00;24.33;;;;;17.89;80.55;101042.81;5059533;28;46029;-79
2021/09/26 07:39:05;;;;;;;;;29.00;28.00;;;;;17.91;80.46;101052.34;5058662;28;45473;-81
2021/09/26 07:41:32;;;;;;;;;26.00;26.00;;;;;17.93;80.05;101057.50;5060235;28;45324;-80
2021/09/26 07:43:58;;;;;;;;;26.00;26.00;;;;;17.91;80.33;101052.34;5058406;28;45925;-81
2021/09/26 07:46:24;;;;;;;;;28.00;25.00;;;;;17.91;80.21;101057.72;5059185;28;46009;-80
2021/09/26 07:48:49;;;;;;;;;21.33;21.33;;;;;17.96;80.32;101053.56;5059699;28;45208;-80
2021/09/26 07:51:15;;;;;;;;;25.67;25.00;;;;;17.96;80.11;101067.81;5059434;28;45228;-83
2021/09/26 07:53:40;;;;;;;;;27.00;27.00;;;;;17.95;80.36;101057.28;5059945;28;45231;-80
2021/09/26 07:56:06;;;;;;;;;26.00;26.00;;;;;17.98;80.20;101073.81;5059506;28;45633;-80
2021/09/26 07:58:32;;;;;;;;;23.67;20.67;;;;;18.03;80.19;101079.38;5059647;28;45409;-80
2021/09/26 08:00:59;;;;;;;;;25.00;24.33;;;;;18.03;79.89;101082.06;5060001;28;45253;-80
2021/09/26 08:03:25;;;;;;;;;28.00;27.00;;;;;18.07;79.90;101087.00;5059692;28;45295;-80
2021/09/26 08:05:51;;;;;;;;;27.67;25.00;;;;;18.09;79.78;101085.75;5059567;28;45253;-80
2021/09/26 08:08:16;;;;;;;;;25.33;24.67;;;;;18.04;79.94;101066.72;5059698;28;45232;-80
2021/09/26 08:10:42;;;;;;;;;25.33;25.00;;;;;18.14;79.61;101085.94;5059928;28;45252;-80
2021/09/26 08:13:07;;;;;;;;;24.67;24.67;;;;;18.12;79.53;101076.44;5059504;28;45215;-80
2021/09/26 08:15:33;;;;;;;;;31.33;26.33;;;;;18.21;79.71;101082.38;5059726;28;45296;-80
2021/09/26 08:17:59;;;;;;;;;24.33;24.33;;;;;18.22;79.50;101079.47;5059734;28;45186;-79
2021/09/26 08:20:26;;;;;;;;;25.67;25.67;;;;;18.22;79.33;101089.41;5059819;28;45231;-80
2021/09/26 08:22:52;;;;;;;;;27.00;26.67;;;;;18.23;79.58;101099.94;5059547;28;45552;-80
2021/09/26 08:25:22;;;;;;;;;26.67;25.33;;;;;18.23;79.34;101101.84;5059367;28;46238;-80
2021/09/26 08:27:48;;;;;;;;;24.67;24.67;;;;;18.21;79.52;101098.53;5059332;28;45167;-80
2021/09/26 08:30:13;;;;;;;;;22.67;22.67;;;;;18.17;79.44;101090.09;5067205;28;45442;-80
2021/09/26 08:32:39;;;;;;;;;26.33;26.00;;;;;18.20;79.45;101097.72;5079833;28;45278;-80
2021/09/26 08:35:06;;;;;;;;;25.33;23.33;;;;;18.23;79.45;101099.16;5079712;28;45315;-79
2021/09/26 08:37:33;;;;;;;;;26.50;23.50;;;;;18.22;79.47;101086.72;5079363;27;45377;-80
2021/09/26 08:39:58;;;;;;;;;22.33;22.33;;;;;18.29;79.25;101093.72;5079805;28;45248;-80
2021/09/26 08:42:24;;;;;;;;;20.33;20.33;;;;;18.40;79.17;101088.66;5079074;27;45331;-80
2021/09/26 08:44:50;;;;;;;;;18.67;18.67;;;;;18.44;79.18;101079.13;5079604;28;45998;-80
2021/09/26 08:47:18;;;;;;;;;22.00;21.00;;;;;18.55;79.00;101085.66;5079452;28;45334;-80
2021/09/26 08:49:45;;;;;;;;;27.00;24.33;;;;;18.65;78.46;101099.44;5079496;28;45235;-81
2021/09/26 08:52:11;;;;;;;;;21.00;21.00;;;;;18.72;78.60;101099.41;5079498;27;45402;-80
2021/09/26 08:54:38;;;;;;;;;21.00;20.00;;;;;18.79;78.60;101093.94;5079372;27;45266;-80
2021/09/26 08:57:04;;;;;;;;;20.00;20.00;;;;;18.79;78.24;101093.94;5079369;28;45382;-80
2021/09/26 08:59:31;;;;;;;;;24.00;24.00;;;;;18.92;77.91;101098.41;5079567;27;45256;-81
2021/09/26 09:01:56;;;;;;;;;20.00;19.67;;;;;19.00;77.94;101094.56;5079492;27;45233;-80
2021/09/26 09:04:40;;;;;;;;;18.00;16.67;;;;;19.05;77.69;101097.44;5081507;28;45301;-80
2021/09/26 09:07:07;;;;;;;;;24.33;21.67;;;;;19.12;77.74;101095.53;5082855;28;45223;-80
2021/09/26 09:09:48;;;;;;;;;20.33;18.00;;;;;19.22;77.32;101094.19;5083029;28;45314;-80
2021/09/26 09:12:13;;;;;;;;;20.33;20.00;;;;;19.28;77.26;101099.50;5082682;28;45294;-80
2021/09/26 09:14:48;;;;;;;;;21.67;21.00;;;;;19.34;76.63;101105.06;5082681;28;45358;-80
2021/09/26 09:17:26;;;;;;;;;20.33;18.33;;;;;19.33;77.04;101095.34;5082825;27;45289;-80
2021/09/26 09:20:22;;;;;;;;;18.33;17.67;;;;;19.42;76.52;101104.75;5082809;28;45237;-80
2021/09/26 09:23:10;;;;;;;;;20.00;19.00;;;;;19.45;76.61;101111.56;5081849;28;45244;-80
2021/09/26 09:25:39;;;;;;;;;21.00;20.00;;;;;19.48;76.33;101114.63;5082132;28;45432;-81
2021/09/26 09:28:14;;;;;;;;;21.67;20.67;;;;;19.51;76.41;101116.03;5080913;28;45290;-80
2021/09/26 09:30:53;;;;;;;;;19.33;19.33;;;;;19.58;76.47;101118.69;5071059;27;45339;-80
2021/09/26 09:33:21;;;;;;;;;22.67;21.67;;;;;19.69;75.83;101123.28;5062196;28;45304;-81
2021/09/26 09:35:53;;;;;;;;;18.00;18.00;;;;;19.73;75.80;101123.69;5060659;28;48116;-81
2021/09/26 09:38:35;;;;;;;;;19.67;19.67;;;;;19.74;75.81;101115.38;5061881;28;45278;-81
2021/09/26 09:41:01;;;;;;;;;17.67;15.67;;;;;19.81;76.17;101124.19;5062208;28;45397;-80
2021/09/26 09:43:28;;;;;;;;;20.67;20.67;;;;;19.86;75.76;101120.81;5061843;28;45248;-80
2021/09/26 09:46:01;;;;;;;;;20.67;18.00;;;;;19.84;75.66;101117.50;5061935;28;45299;-80
2021/09/26 09:48:32;;;;;;;;;18.00;18.00;;;;;19.84;75.51;101120.22;5061569;28;45346;-79
2021/09/26 09:51:06;;;;;;;;;19.00;17.67;;;;;19.82;74.68;101111.53;5062039;28;45385;-80
2021/09/26 09:53:45;;;;;;;;;20.67;20.67;;;;;19.83;75.50;101113.19;5060214;28;45383;-80
2021/09/26 09:56:40;;;;;;;;;22.33;22.33;;;;;19.90;75.53;101097.72;5061718;28;45317;-80
2021/09/26 09:59:06;;;;;;;;;17.67;15.33;;;;;19.98;75.28;101103.84;5061707;28;45389;-80
2021/09/26 10:01:37;;;;;;;;;19.00;19.00;;;;;20.06;75.17;101098.19;5061854;28;45222;-80
2021/09/26 10:04:07;;;;;;;;;17.00;17.00;;;;;20.15;75.06;101104.91;5061785;28;45381;-80
2021/09/26 10:06:43;;;;;;;;;21.33;21.00;;;;;20.24;74.42;101104.56;5061278;28;45264;-80
2021/09/26 10:09:28;;;;;;;;;22.00;20.33;;;;;20.33;73.74;101100.47;5061418;28;45180;-80
2021/09/26 10:11:55;;;;;;;;;20.33;20.33;;;;;20.43;73.89;101105.31;5061168;28;45231;-81
2021/09/26 10:14:23;;;;;;;;;18.00;17.67;;;;;20.50;74.07;101103.31;5061199;28;45287;-83
2021/09/26 10:16:49;;;;;;;;;18.33;18.33;;;;;20.53;73.39;101102.84;5060083;28;45797;-83
2021/09/26 10:19:16;;;;;;;;;15.33;15.00;;;;;20.51;73.22;101099.59;5061471;28;45355;-83
2021/09/26 10:21:42;;;;;;;;;18.00;18.00;;;;;20.55;73.82;101092.66;5061394;28;45224;-83
2021/09/26 10:24:08;;;;;;;;;15.67;15.67;;;;;20.55;72.95;101099.91;5059796;28;46345;-83
2021/09/26 10:26:37;;;;;;;;;17.00;17.00;;;;;20.61;73.55;101098.16;5060131;28;45249;-83
2021/09/26 10:29:05;;;;;;;;;15.67;14.67;;;;;20.63;73.05;101096.91;5061021;28;45564;-82
2021/09/26 10:31:32;;;;;;;;;19.67;16.67;;;;;20.62;71.94;101097.94;5079686;28;45359;-81
2021/09/26 10:34:04;;;;;;;;;18.00;18.00;;;;;20.75;71.51;101115.81;5081485;28;45245;-81
2021/09/26 10:36:32;;;;;;;;;16.67;16.67;;;;;20.77;71.74;101096.66;5081201;28;45483;-79
2021/09/26 10:39:00;;;;;;;;;17.00;16.67;;;;;20.85;72.26;101108.97;5081129;28;45331;-79
2021/09/26 10:41:26;;;;;;;;;15.67;15.00;;;;;20.84;72.44;101110.88;5081728;27;45296;-79
2021/09/26 10:43:52;;;;;;;;;20.00;19.00;;;;;20.85;72.63;101107.09;5081126;27;45436;-79
2021/09/26 10:46:24;;;;;;;;;14.33;13.33;;;;;20.87;72.39;101115.81;5081034;27;45341;-79
2021/09/26 10:48:55;;;;;;;;;18.67;17.00;;;;;20.87;72.38;101114.97;5040537;28;45226;-79
2021/09/26 10:51:43;;;;;;;;;14.33;13.33;;;;;20.90;72.70;101111.84;5040621;28;45296;-79
2021/09/26 10:54:30;;;;;;;;;16.00;14.67;;;;;20.91;72.27;101106.19;5039197;28;45335;-80
2021/09/26 10:57:04;;;;;;;;;15.67;15.67;;;;;20.99;72.55;101107.75;5040232;28;46224;-81
2021/09/26 10:59:48;;;;;;;;;17.67;17.67;;;;;21.13;72.35;101102.09;5040580;28;45355;-80
2021/09/26 11:02:23;;;;;;;;;15.33;15.33;;;;;21.26;71.46;101103.72;5040815;28;45220;-81
2021/09/26 11:04:50;;;;;;;;;16.33;16.33;;;;;21.33;70.72;101100.88;5040597;28;45260;-80
2021/09/26 11:07:20;;;;;;;;;12.00;12.00;;;;;21.36;70.83;101100.38;5040214;28;45256;-78
2021/09/26 11:10:08;;;;;;;;;14.00;14.00;;;;;21.40;71.15;101102.38;5040551;28;45447;-80
2021/09/26 11:12:42;;;;;;;;;18.33;17.00;;;;;21.50;71.32;101103.66;5040471;28;45168;-80
2021/09/26 11:15:30;;;;;;;;;17.33;17.00;;;;;21.57;70.74;101088.94;5040316;28;45415;-82